Aeroporto :
LOGIN :

Iscrizione | Disclaimer

   EN    FR    IT 

 










Sommario :    VFR   VFR Marginale   IFR   IFR Intensivo   IFR Molto Intensivo
Visibilità : 
Base nubi : 
>= 8 km
>= 3000ft
5 / 8 km
1000 / 3000 ft
1500m / 5 km
500 / 1000 ft
800 / 1500m
200 / 500 ft
< 800m
< 200 ft
Simboli :   Temporali  Nebbia  Neve Forte  Precipitazioni Forti  Vento > 20 kt
SIGMETs :   Varie  Temporali  Ghiacco  Turbolenza  Onda orograficha  Ceneri Vulcaniche







- Altitudine del aeroporto : 499 ft
- Codice IATA : TLS
- Carte del aeroporto


LFBO - Toulouse / Blagnac

ULTIMO METAR :
  • 121630Z AUTO 06004KT 030V090 7000 BKN006/// BKN041/// BKN047/// ///CB 09/07 Q1017 BECMG OVC005

METARs OBSOLETI :
  • 121600Z AUTO 10004KT 9999 FEW009/// SCT022/// BKN047/// ///TCU 09/08 Q1017 BECMG SCT010 BKN020
  • 121530Z AUTO 06005KT 9999 FEW008 BKN050 OVC068 09/08 Q1017 NOSIG
  • 121500Z AUTO VRB02KT 9999 FEW028 SCT033 BKN046 10/08 Q1017 NOSIG
  • 121430Z AUTO VRB02KT 9999 FEW009 SCT042 OVC064 10/08 Q1018 NOSIG
  • 121400Z AUTO VRB02KT 9999 SCT008 SCT024 OVC054 10/08 Q1018 NOSIG

TAF AMD TAF LFBO
Valido dal 12 a 16 ore il 13 a 18 ore UTC


121623Z 1216/1318 30007KT 9999 SCT010 BKN020
TEMPO 1216/1218 4000 -SHRA BKN005 SCT020TCU
BECMG 1218/1220 OVC005
PROB40
TEMPO 1220/1305 2000 BR OVC003
BECMG 1305/1307 14010KT CAVOK
BECMG 1310/1312 -RA OVC020
TEMPO 1312/1318 3000 RA BKN007
ATIS : +33 5 62 74 66 36
Nessun NOTAM noto per questo aeroporto.



MetMap, La meteo Aeronautica in un colpo d'occhio ! - Copyright ORBIFLY Dicembre 2007 - Disclaimer

ORBIFLY MET'MAP TEAM :

Programmazione e sviluppo : Alexandra Zaïnal
Concezione e sviluppo : Baudouin d'Aumeries
Co-Programmazione e sviluppo : Marc-Olivier Méhu
Supporto tecnico e logistico : Manuel Goepfert
Aiuto per la traduzione : Arnaldo La Scala

Contatto : metmap@orbifly.com




FONTI E CREDITI :

   NOAA